createdAt,value
2023-05-15T16:02:22.310Z,8.00
2023-05-15T16:03:54.405Z,7.20
2023-05-15T16:05:26.461Z,7.20
2023-05-15T16:06:58.459Z,10.20
2023-05-15T16:08:30.455Z,7.20
2023-05-15T16:10:11.787Z,8.00
2023-05-15T16:11:45.274Z,8.80
2023-05-15T16:13:17.348Z,9.40
2023-05-15T16:14:49.271Z,8.60
2023-05-15T16:16:21.543Z,8.40
2023-05-15T16:17:54.144Z,10.00
2023-05-15T16:19:27.029Z,6.40
2023-05-15T16:20:59.313Z,6.20
2023-05-15T16:22:31.410Z,9.80
2023-05-15T16:24:03.734Z,11.40
2023-05-15T16:25:36.806Z,6.60
2023-05-15T16:27:09.033Z,8.20
2023-05-15T16:28:41.455Z,11.00
2023-05-15T16:30:14.074Z,5.60
2023-05-15T16:31:47.096Z,6.20
2023-05-15T16:33:19.288Z,5.60
2023-05-15T16:34:51.306Z,5.60
2023-05-15T16:36:23.263Z,6.60
2023-05-15T16:37:55.416Z,5.00
2023-05-15T16:39:27.469Z,5.20
2023-05-15T16:40:59.525Z,5.80
2023-05-15T16:42:35.905Z,6.20
2023-05-15T16:44:11.050Z,6.40
2023-05-15T16:45:44.655Z,7.80
2023-05-15T16:47:16.726Z,9.20
2023-05-15T16:48:48.739Z,6.00
2023-05-15T16:50:20.682Z,7.60
2023-05-15T16:51:53.041Z,7.00
2023-05-15T16:53:25.050Z,7.00
2023-05-15T16:54:56.999Z,7.60
2023-05-15T16:56:29.352Z,8.80
2023-05-15T16:58:01.346Z,7.20
2023-05-15T16:59:33.243Z,8.20
2023-05-15T17:01:05.418Z,6.60
2023-05-15T17:02:37.479Z,8.80
2023-05-15T17:04:09.864Z,7.20
2023-05-15T17:05:42.061Z,8.20
2023-05-15T17:07:14.008Z,7.20
2023-05-15T17:08:46.466Z,7.80
2023-05-15T17:10:18.372Z,9.80
2023-05-15T17:11:50.383Z,6.80
2023-05-15T17:13:22.213Z,8.20
2023-05-15T17:14:54.042Z,7.80
2023-05-15T17:16:26.361Z,7.00
2023-05-15T17:17:58.805Z,6.60
2023-05-15T17:19:33.013Z,5.20
2023-05-15T17:21:05.006Z,5.00
2023-05-15T17:22:37.049Z,5.40
2023-05-15T17:24:08.978Z,8.80
2023-05-15T17:25:41.016Z,7.80
2023-05-15T17:27:12.929Z,9.60
2023-05-15T17:28:44.912Z,7.40
2023-05-15T17:30:17.011Z,13.20
2023-05-15T17:31:49.067Z,18.20
2023-05-15T17:33:21.128Z,24.60
2023-05-15T17:34:53.091Z,30.00
2023-05-15T17:36:25.113Z,33.80
2023-05-15T17:37:57.520Z,36.20
2023-05-15T17:39:30.012Z,50.00
2023-05-15T17:41:02.153Z,51.60
2023-05-15T17:42:34.727Z,54.80
2023-05-15T17:44:06.869Z,63.00
2023-05-15T17:45:38.902Z,67.75
2023-05-15T17:47:11.114Z,69.75
2023-05-15T17:48:42.985Z,75.00
2023-05-15T17:50:15.030Z,78.50
2023-05-15T17:51:47.015Z,76.50
2023-05-15T17:53:19.112Z,84.50
2023-05-15T17:54:51.117Z,76.75
2023-05-15T17:56:23.084Z,89.50
2023-05-15T17:57:55.060Z,87.50
2023-05-15T17:59:27.269Z,105.00
2023-05-15T18:00:59.437Z,97.00
2023-05-15T18:02:31.402Z,100.00
2023-05-15T18:04:04.446Z,109.80
2023-05-15T18:05:36.843Z,102.75
2023-05-15T18:07:08.848Z,132.20
2023-05-15T18:08:41.502Z,111.80
2023-05-15T18:10:13.503Z,122.00
2023-05-15T18:11:45.998Z,129.00
2023-05-15T18:13:18.864Z,111.75
2023-05-15T18:14:50.772Z,121.75
2023-05-15T18:16:23.166Z,136.00
2023-05-15T18:17:55.243Z,150.75
2023-05-15T18:19:27.282Z,137.25
2023-05-15T18:20:59.332Z,146.00
2023-05-15T18:22:31.660Z,138.75
2023-05-15T18:24:03.972Z,119.25
2023-05-15T18:25:37.011Z,125.25
2023-05-15T18:27:09.813Z,156.50
2023-05-15T18:28:41.821Z,138.50
2023-05-15T18:30:14.629Z,160.75
2023-05-15T18:31:46.638Z,143.00
2023-05-15T18:33:18.589Z,134.00
2023-05-15T18:34:50.612Z,126.75
2023-05-15T18:36:22.635Z,180.00
2023-05-15T18:37:54.533Z,186.50
2023-05-15T18:39:26.437Z,174.50
2023-05-15T18:40:58.337Z,180.75
2023-05-15T18:42:30.641Z,185.50
2023-05-15T18:44:02.639Z,183.00
2023-05-15T18:45:34.601Z,188.25
2023-05-15T18:47:06.708Z,158.25
2023-05-15T18:48:38.912Z,169.00
2023-05-15T18:50:11.243Z,163.00
2023-05-15T18:51:43.260Z,166.50
2023-05-15T18:53:15.265Z,160.25
2023-05-15T18:54:48.061Z,141.75
2023-05-15T18:56:20.070Z,158.50
2023-05-15T18:57:51.912Z,128.75
2023-05-15T18:59:23.987Z,158.25
2023-05-15T19:00:56.650Z,164.50
2023-05-15T19:02:28.901Z,145.25
2023-05-15T19:04:00.835Z,132.25
2023-05-15T19:05:34.264Z,162.00
2023-05-15T19:07:06.848Z,142.00
2023-05-15T19:08:38.849Z,158.75
2023-05-15T19:10:11.104Z,170.00
2023-05-15T19:11:43.170Z,171.50
2023-05-15T19:13:15.094Z,169.50
2023-05-15T19:14:47.043Z,178.75
2023-05-15T19:16:19.116Z,154.50
2023-05-15T19:17:51.945Z,154.50
2023-05-15T19:19:24.346Z,163.50
2023-05-15T19:20:56.852Z,156.00
2023-05-15T19:22:28.780Z,177.00
2023-05-15T19:24:00.782Z,173.50
2023-05-15T19:25:32.781Z,164.75
2023-05-15T19:27:05.730Z,162.75
2023-05-15T19:28:37.842Z,152.50
2023-05-15T19:30:10.286Z,181.25
2023-05-15T19:31:42.344Z,169.50
2023-05-15T19:33:15.910Z,156.25
2023-05-15T19:34:48.934Z,166.00
2023-05-15T19:36:20.936Z,184.50
2023-05-15T19:37:52.838Z,191.00
2023-05-15T19:39:24.779Z,202.67
2023-05-15T19:40:57.125Z,214.00
2023-05-15T19:42:29.277Z,213.67
2023-05-15T19:44:01.339Z,217.00
2023-05-15T19:45:33.351Z,207.33
2023-05-15T19:47:05.254Z,234.00
2023-05-15T19:48:37.254Z,238.67
2023-05-15T19:50:10.542Z,204.00
2023-05-15T19:51:42.444Z,214.67
2023-05-15T19:53:14.386Z,215.33
2023-05-15T19:54:46.449Z,208.67
2023-05-15T19:56:21.630Z,204.33
2023-05-15T19:57:55.411Z,220.33
2023-05-15T19:59:27.258Z,227.33
2023-05-15T20:00:59.237Z,208.33
2023-05-15T20:02:31.290Z,196.67
2023-05-15T20:04:03.430Z,214.67
2023-05-15T20:05:39.109Z,215.67
2023-05-15T20:07:11.178Z,244.00
2023-05-15T20:08:43.530Z,213.00
2023-05-15T20:10:18.468Z,215.33
2023-05-15T20:11:50.470Z,187.25
2023-05-15T20:13:22.651Z,229.33
2023-05-15T20:14:54.771Z,220.67
2023-05-15T20:16:26.733Z,224.00
2023-05-15T20:17:58.782Z,211.00
2023-05-15T20:19:33.786Z,184.00
2023-05-15T20:21:06.754Z,236.00
2023-05-15T20:22:39.480Z,208.00
2023-05-15T20:24:12.144Z,215.00
2023-05-15T20:25:44.078Z,213.67
2023-05-15T20:27:16.509Z,205.00
2023-05-15T20:28:48.450Z,221.67
2023-05-15T20:30:20.429Z,205.00
2023-05-15T20:31:52.793Z,186.75
2023-05-15T20:33:25.519Z,231.67
2023-05-15T20:34:58.059Z,205.33
2023-05-15T20:36:32.724Z,225.00
2023-05-15T20:38:04.781Z,216.33
2023-05-15T20:39:36.848Z,250.33
2023-05-15T20:41:08.758Z,228.00
2023-05-15T20:42:40.699Z,244.67
2023-05-15T20:44:12.708Z,261.67
2023-05-15T20:45:44.698Z,231.00
2023-05-15T20:47:16.766Z,198.50
2023-05-15T20:48:48.691Z,192.25
2023-05-15T20:50:20.845Z,162.50
2023-05-15T20:51:52.861Z,168.00
2023-05-15T20:53:25.035Z,177.25
2023-05-15T20:54:57.005Z,167.50
2023-05-15T20:56:29.369Z,167.50
2023-05-15T20:58:01.306Z,167.25
2023-05-15T20:59:34.058Z,155.00
2023-05-15T21:01:06.011Z,165.75
2023-05-15T21:02:38.131Z,166.00
2023-05-15T21:04:10.177Z,173.50
2023-05-15T21:05:42.454Z,160.50
2023-05-15T21:07:14.349Z,148.25
2023-05-15T21:08:46.281Z,161.75
2023-05-15T21:10:18.212Z,161.00
2023-05-15T21:11:50.119Z,153.75
2023-05-15T21:13:22.539Z,162.00
2023-05-15T21:14:54.556Z,157.75
2023-05-15T21:16:26.497Z,155.25
2023-05-15T21:17:58.665Z,145.75
2023-05-15T21:19:30.690Z,163.50
2023-05-15T21:21:07.093Z,149.25
2023-05-15T21:22:39.042Z,139.00
2023-05-15T21:24:10.967Z,129.00
2023-05-15T21:25:42.992Z,139.25
2023-05-15T21:27:14.957Z,146.75
2023-05-15T21:28:46.832Z,137.50
2023-05-15T21:30:18.960Z,132.00
2023-05-15T21:31:50.940Z,138.25
2023-05-15T21:33:23.118Z,143.75
2023-05-15T21:34:55.081Z,121.75
2023-05-15T21:36:27.151Z,123.00
2023-05-15T21:37:59.909Z,125.25
2023-05-15T21:39:31.873Z,132.75
2023-05-15T21:41:03.869Z,121.00
2023-05-15T21:42:36.154Z,130.50
2023-05-15T21:44:08.238Z,116.00
2023-05-15T21:45:40.235Z,106.50
2023-05-15T21:47:12.190Z,108.40
2023-05-15T21:48:44.323Z,117.20
2023-05-15T21:50:16.342Z,107.40
2023-05-15T21:51:48.319Z,105.50
2023-05-15T21:53:20.289Z,106.00
2023-05-15T21:54:52.247Z,98.75
2023-05-15T21:56:24.373Z,84.00
2023-05-15T21:57:56.387Z,102.00
2023-05-15T21:59:28.387Z,85.25
2023-05-15T22:01:00.304Z,92.00
2023-05-15T22:02:32.157Z,95.00
2023-05-15T22:04:04.410Z,86.50
2023-05-15T22:05:36.436Z,83.00
2023-05-15T22:07:08.446Z,103.50
2023-05-15T22:08:40.443Z,76.00
2023-05-15T22:10:16.542Z,77.50
2023-05-15T22:11:48.582Z,74.00
2023-05-15T22:13:20.768Z,71.00
2023-05-15T22:14:58.856Z,69.67
2023-05-15T22:16:31.758Z,70.00
2023-05-15T22:18:05.665Z,68.75
2023-05-15T22:19:37.843Z,64.25
2023-05-15T22:21:09.793Z,63.60
2023-05-15T22:22:42.119Z,68.00
2023-05-15T22:24:14.049Z,71.25
2023-05-15T22:25:46.069Z,79.00
2023-05-15T22:27:17.982Z,80.00
2023-05-15T22:28:54.687Z,77.00
2023-05-15T22:30:26.868Z,80.00
2023-05-15T22:31:59.162Z,73.75
2023-05-15T22:33:31.126Z,78.25
